This demonstration page uses our WeatherBlox Daily Observations layout. Learn more.

Left ArrowRight Arrow

41.55636, -103.73856

Hourly Observations for January 25, 2021

Temp ( °F °C ) Dew Point ( °F °C ) Humidity (%) Winds ( mph kmh ) Pressure ( in mb ) Visibility ( mi km ) Precip ( " mm )
12:58 am 00:58 Clear 19 -7.4 18 -8 96 96 N 5 7 29.75 1007 7 11.26538 0 0
1:58 am 01:58 Mostly Clear 19 -7.2 17 -8.2 93 93 S 7 11 29.79 1009 10 16.0934 0 0
3:58 am 03:58 Cloudy 20 -6.9 17 -8.2 91 91 Calm 29.78 1008 10 16.0934 0 0
4:58 am 04:58 Cloudy 19 -7.5 16 -8.8 91 91 NNW 7 11 29.81 1010 10 16.0934 0 0
5:58 am 05:58 Mostly Cloudy 13 -10.4 11 -11.7 90 90 NW 10 17 29.85 1011 10 16.0934 0 0
6:58 am 06:58 Mostly Cloudy with Light Snow 15 -9.5 14 -10.2 95 95 WNW 9 15 29.85 1011 5 8.0467 0 0
7:58 am 07:58 Mostly Cloudy with Light Snow 16 -8.8 15 -9.6 94 94 WNW 9 15 29.85 1011 0.25 0.402335 0 0
8:58 am 08:58 Mostly Cloudy with Freezing Fog 19 -7.5 17 -8.3 94 94 NW 8 13 29.88 1012 0.25 0.402335 0 0
9:58 am 09:58 Mostly Cloudy with Light Snow Showers 19 -7.3 17 -8.1 94 94 NW 8 13 29.88 1012 0.5 0.80467 0 0
10:58 am 10:58 Mostly Cloudy with Freezing Fog 19 -7 18 -7.9 93 93 N 7 11 29.9 1012 0.25 0.402335 0 0
11:58 am 11:58 Mostly Cloudy with Mist and Fog 20 -6.5 19 -7.3 94 94 N 8 13 29.87 1011 4 6.43736 0 0
12:58 pm 12:58 Cloudy 21 -6.1 20 -6.8 95 95 NNW 10 17 29.87 1011 7 11.26538 0 0
1:58 pm 13:58 Cloudy with Light Snow Showers 22 -5.8 20 -6.5 95 95 N 12 19 29.87 1011 9 14.48406 0 0
2:58 pm 14:58 Cloudy with Light Snow Showers 22 -5.6 21 -6.3 95 95 N 9 15 29.88 1012 5 8.0467 0 0
3:58 pm 15:58 Cloudy with Light Freezing Drizzle 22 -5.7 20 -6.4 95 95 N 9 15 29.9 1012 3 4.82802 0 0
4:58 pm 16:58 Cloudy with Light Freezing Drizzle 21 -6.2 19 -7 94 94 NNE 13 20 29.93 1014 3 4.82802 0 0
5:58 pm 17:58 Cloudy with Light Freezing Rain 20 -6.7 19 -7.5 94 94 NNE 10 17 29.98 1015 5 8.0467 0 0
6:58 pm 18:58 Cloudy with Light Freezing Rain 19 -7.4 17 -8.3 93 93 NE 12 19 29.98 1015 7 11.26538 0 0
7:58 pm 19:58 Cloudy with Light Snow Showers 18 -7.9 16 -8.8 93 93 NE 7 11 29.99 1016 10 16.0934 0 0
8:58 pm 20:58 Cloudy with Light Snow 18 -8 16 -8.9 93 93 NE 7 11 29.99 1016 10 16.0934 0 0
11:58 pm 23:58 Cloudy with Light Snow 18 -7.9 16 -8.8 93 93 N 3 6 29.99 1016 6 9.65604 0 0

Powered by AerisWeather